Time;durP1;ratioP1;P1;durP2;ratioP2;P2;SDS_P1;SDS_P2;PMS_P1;PMS_P2;Temp;Humidity;BMP_temperature;BMP_pressure;BME280_temperature;BME280_humidity;BME280_pressure;Samples;Min_cycle;Max_cycle;Signal;HPM_P1;HPM_P2
2023/12/21 00:01:02;;;;;;;0.30;0.30;;;;;;;7.48;100.00;100645.28;5095429;28;20020;-47
2023/12/21 00:03:27;;;;;;;0.30;0.30;;;;;;;7.50;100.00;100651.31;5095190;28;20513;-48
2023/12/21 00:05:52;;;;;;;0.30;0.30;;;;;;;7.49;100.00;100640.19;5094818;28;20379;-47
2023/12/21 00:08:19;;;;;;;0.30;0.30;;;;;;;7.49;100.00;100622.25;5094924;28;20031;-48
2023/12/21 00:10:44;;;;;;;0.30;0.30;;;;;;;7.50;100.00;100617.97;5094733;28;20081;-45
2023/12/21 00:13:09;;;;;;;0.30;0.30;;;;;;;7.49;100.00;100617.13;5094806;28;20020;-47
2023/12/21 00:15:35;;;;;;;0.30;0.30;;;;;;;7.49;100.00;100611.97;5095016;28;20479;-45
2023/12/21 00:18:00;;;;;;;0.30;0.30;;;;;;;7.49;100.00;100586.34;5094566;28;20028;-49
2023/12/21 00:20:25;;;;;;;0.30;0.30;;;;;;;7.50;100.00;100597.47;5094667;28;20452;-48
2023/12/21 00:22:50;;;;;;;0.30;0.30;;;;;;;7.48;100.00;100605.09;5095088;28;20023;-48
2023/12/21 00:25:16;;;;;;;0.30;0.30;;;;;;;7.48;100.00;100604.25;5094042;28;20021;-49
2023/12/21 00:27:41;;;;;;;0.30;0.30;;;;;;;7.46;100.00;100586.22;5094691;28;20031;-47
2023/12/21 00:30:07;;;;;;;0.30;0.30;;;;;;;7.46;100.00;100572.53;5094999;28;20028;-48
2023/12/21 00:32:33;;;;;;;0.30;0.30;;;;;;;7.45;100.00;100574.22;5093940;28;20028;-48
2023/12/21 00:34:58;;;;;;;0.30;0.30;;;;;;;7.45;100.00;100573.34;5094437;28;20063;-48
2023/12/21 00:37:24;;;;;;;0.30;0.30;;;;;;;7.44;100.00;100572.47;5094512;28;20035;-47
2023/12/21 00:39:49;;;;;;;0.30;0.30;;;;;;;7.44;100.00;100576.72;5094083;28;20035;-46
2023/12/21 00:42:15;;;;;;;0.30;0.30;;;;;;;7.45;100.00;100578.47;5094141;28;20020;-47
2023/12/21 00:44:40;;;;;;;0.30;0.30;;;;;;;7.45;100.00;100563.97;5094581;28;20090;-47
2023/12/21 00:47:05;;;;;;;0.30;0.30;;;;;;;7.44;100.00;100546.84;5093770;28;20063;-46
2023/12/21 00:49:31;;;;;;;0.30;0.30;;;;;;;7.44;100.00;100546.84;5094192;28;20020;-47
2023/12/21 00:51:56;;;;;;;0.30;0.30;;;;;;;7.43;100.00;100539.94;5094519;28;20139;-49
2023/12/21 00:54:21;;;;;;;0.30;0.30;;;;;;;7.43;100.00;100537.38;5093431;28;20024;-49
2023/12/21 00:56:47;;;;;;;0.30;0.30;;;;;;;7.42;100.00;100540.75;5094124;28;20024;-46
2023/12/21 00:59:12;;;;;;;0.20;0.20;;;;;;;7.42;100.00;100530.50;5093781;28;20024;-45
2023/12/21 01:01:37;;;;;;;0.40;0.40;;;;;;;7.42;100.00;100527.94;5093659;28;20032;-49
2023/12/21 01:04:03;;;;;;;0.30;0.30;;;;;;;7.41;100.00;100523.63;5094003;28;20028;-48
2023/12/21 01:06:28;;;;;;;0.30;0.30;;;;;;;7.39;100.00;100513.31;5094026;28;20356;-44
2023/12/21 01:08:53;;;;;;;0.32;0.32;;;;;;;7.40;100.00;100506.50;5093718;28;20107;-49
2023/12/21 01:11:18;;;;;;;0.30;0.30;;;;;;;7.42;100.00;100504.88;5093627;28;20382;-47
2023/12/21 01:13:44;;;;;;;0.40;0.40;;;;;;;7.41;100.00;100493.75;5093883;28;20030;-48
2023/12/21 01:16:09;;;;;;;0.30;0.30;;;;;;;7.42;100.00;100492.03;5093400;28;20024;-45
2023/12/21 01:18:35;;;;;;;0.30;0.30;;;;;;;7.43;100.00;100483.53;5093542;28;20012;-49
2023/12/21 01:21:00;;;;;;;0.35;0.35;;;;;;;7.45;100.00;100488.72;5093388;28;20026;-49
2023/12/21 01:23:25;;;;;;;0.30;0.30;;;;;;;7.45;100.00;100494.75;5093463;28;20107;-46
2023/12/21 01:25:50;;;;;;;0.28;0.28;;;;;;;7.46;100.00;100504.16;5092915;28;20032;-48
2023/12/21 01:28:16;;;;;;;0.30;0.30;;;;;;;7.46;100.00;100487.91;5092972;28;20108;-47
2023/12/21 01:30:41;;;;;;;0.30;0.30;;;;;;;7.46;100.00;100485.34;5093510;28;20028;-50
2023/12/21 01:33:06;;;;;;;0.30;0.30;;;;;;;7.45;100.00;100479.34;5093503;28;20024;-49
2023/12/21 01:35:32;;;;;;;0.30;0.30;;;;;;;7.44;100.00;100474.16;5092800;28;20020;-46
2023/12/21 01:37:57;;;;;;;0.30;0.30;;;;;;;7.43;100.00;100457.91;5093527;28;20418;-44
2023/12/21 01:40:23;;;;;;;0.30;0.30;;;;;;;7.44;100.00;100466.44;5093085;28;20024;-46
2023/12/21 01:42:48;;;;;;;0.40;0.40;;;;;;;7.43;100.00;100463.03;5092870;28;20024;-45
2023/12/21 01:45:14;;;;;;;0.40;0.40;;;;;;;7.42;100.00;100476.66;5092699;28;20427;-49
2023/12/21 01:47:39;;;;;;;0.30;0.30;;;;;;;7.43;100.00;100463.03;5093357;28;20031;-48
2023/12/21 01:50:06;;;;;;;0.40;0.40;;;;;;;7.44;100.00;100456.19;5092872;28;20024;-50
2023/12/21 01:52:31;;;;;;;0.30;0.30;;;;;;;7.44;100.00;100448.50;5092525;28;20085;-47
2023/12/21 01:54:58;;;;;;;0.30;0.30;;;;;;;7.44;100.00;100441.69;5093436;28;20102;-47
2023/12/21 01:57:24;;;;;;;0.30;0.30;;;;;;;7.44;100.00;100441.69;5092424;28;20028;-47
2023/12/21 01:59:51;;;;;;;0.30;0.30;;;;;;;7.44;100.00;100449.41;5093051;28;20027;-45
2023/12/21 02:02:16;;;;;;;0.30;0.30;;;;;;;7.43;100.00;100447.66;5092741;28;20399;-49
2023/12/21 02:04:41;;;;;;;0.30;0.30;;;;;;;7.43;100.00;100450.22;5092825;28;20479;-48
2023/12/21 02:07:07;;;;;;;0.25;0.25;;;;;;;7.45;100.00;100452.81;5092926;28;20028;-48
2023/12/21 02:09:32;;;;;;;0.30;0.30;;;;;;;7.44;100.00;100453.63;5093011;28;20035;-50
2023/12/21 02:11:57;;;;;;;0.30;0.30;;;;;;;7.45;100.00;100457.94;5092361;28;20050;-49
2023/12/21 02:14:23;;;;;;;0.30;0.30;;;;;;;7.45;100.00;100457.94;5092419;28;20016;-48
2023/12/21 02:17:02;;;;;;;0.30;0.30;;;;;;;7.45;100.00;100451.16;5092795;28;20062;-48
2023/12/21 02:19:28;;;;;;;0.30;0.30;;;;;;;7.45;100.00;100435.75;5091887;28;20028;-48
2023/12/21 02:21:56;;;;;;;0.32;0.32;;;;;;;7.43;100.00;100442.50;5092773;28;20156;-48
2023/12/21 02:24:22;;;;;;;0.30;0.30;;;;;;;7.44;100.00;100433.13;5092016;28;20050;-45
2023/12/21 02:26:48;;;;;;;0.30;0.30;;;;;;;7.43;100.00;100429.69;5092707;28;20028;-48
2023/12/21 02:29:13;;;;;;;0.30;0.30;;;;;;;7.44;100.00;100422.88;5092233;28;20032;-49
2023/12/21 02:31:39;;;;;;;0.30;0.30;;;;;;;7.43;100.00;100409.19;5092215;28;20032;-49
2023/12/21 02:34:09;;;;;;;0.30;0.30;;;;;;;7.43;100.00;100406.63;5092587;28;20020;-47
2023/12/21 02:36:34;;;;;;;0.30;0.30;;;;;;;7.43;100.00;100400.63;5092600;28;20020;-45
2023/12/21 02:39:00;;;;;;;0.30;0.30;;;;;;;7.43;100.00;100401.50;5091985;28;20095;-49
2023/12/21 02:41:25;;;;;;;0.30;0.30;;;;;;;7.43;100.00;100398.06;5092033;28;20020;-49
2023/12/21 02:43:50;;;;;;;0.30;0.30;;;;;;;7.43;100.00;100391.25;5092587;28;20028;-49
2023/12/21 02:46:17;;;;;;;0.20;0.20;;;;;;;7.42;100.00;100376.66;5091654;28;20051;-50
2023/12/21 02:48:42;;;;;;;0.30;0.30;;;;;;;7.43;100.00;100380.13;5092515;28;20035;-50
2023/12/21 02:51:07;;;;;;;0.30;0.30;;;;;;;7.43;100.00;100391.25;5092442;28;20024;-48
2023/12/21 02:53:32;;;;;;;0.28;0.28;;;;;;;7.43;100.00;100386.09;5091700;28;20055;-47
2023/12/21 02:55:58;;;;;;;0.20;0.20;;;;;;;7.45;100.00;100388.72;5092340;28;20457;-48
2023/12/21 02:58:23;;;;;;;0.30;0.30;;;;;;;7.45;100.00;100379.34;5092190;28;20032;-48
2023/12/21 03:00:49;;;;;;;0.30;0.30;;;;;;;7.47;100.00;100371.72;5091984;28;20471;-46
2023/12/21 03:03:14;;;;;;;0.30;0.30;;;;;;;7.46;100.00;100365.69;5091977;28;20020;-49
2023/12/21 03:05:40;;;;;;;0.30;0.30;;;;;;;7.47;100.00;100374.28;5092463;28;20024;-50
2023/12/21 03:08:05;;;;;;;0.20;0.20;;;;;;;7.48;100.00;100370.91;5092012;28;20032;-46
2023/12/21 03:10:30;;;;;;;0.30;0.30;;;;;;;7.46;100.00;100360.56;5091856;28;20046;-48
2023/12/21 03:12:56;;;;;;;0.25;0.25;;;;;;;7.46;100.00;100345.19;5092275;28;20115;-49
2023/12/21 03:15:21;;;;;;;0.30;0.30;;;;;;;7.45;100.00;100333.19;5091400;28;20029;-45
2023/12/21 03:17:46;;;;;;;0.30;0.30;;;;;;;7.46;100.00;100319.53;5092178;28;20020;-47
2023/12/21 03:20:12;;;;;;;0.30;0.30;;;;;;;7.46;100.00;100291.34;5092166;28;20027;-47
2023/12/21 03:22:37;;;;;;;0.30;0.30;;;;;;;7.47;100.00;100284.53;5091715;28;20024;-48
2023/12/21 03:25:03;;;;;;;0.30;0.30;;;;;;;7.49;100.00;100283.75;5092020;28;20028;-48
2023/12/21 03:27:28;;;;;;;0.30;0.30;;;;;;;7.49;100.00;100273.50;5091881;28;20084;-50
2023/12/21 03:29:53;;;;;;;0.30;0.30;;;;;;;7.49;100.00;100272.63;5091904;28;20046;-48
2023/12/21 03:32:18;;;;;;;0.30;0.30;;;;;;;7.51;100.00;100259.03;5091752;28;20081;-49
2023/12/21 03:34:44;;;;;;;0.30;0.30;;;;;;;7.52;100.00;100276.16;5091716;28;20039;-50
2023/12/21 03:37:09;;;;;;;0.30;0.30;;;;;;;7.52;100.00;100265.91;5091901;28;20542;-44
2023/12/21 03:39:34;;;;;;;0.30;0.30;;;;;;;7.55;100.00;100247.19;5092137;28;20034;-50
2023/12/21 03:42:01;;;;;;;0.30;0.30;;;;;;;7.55;100.00;100250.63;5091374;28;20032;-49
2023/12/21 03:44:27;;;;;;;0.20;0.20;;;;;;;7.56;100.00;100248.94;5091408;28;20030;-48
2023/12/21 03:46:52;;;;;;;0.30;0.30;;;;;;;7.57;100.00;100250.69;5092108;28;20040;-49
2023/12/21 03:49:18;;;;;;;0.30;0.30;;;;;;;7.57;100.00;100246.41;5093742;28;20031;-48
2023/12/21 03:51:43;;;;;;;0.20;0.20;;;;;;;7.57;100.00;100237.84;5095174;28;20068;-47
2023/12/21 03:54:08;;;;;;;0.30;0.30;;;;;;;7.57;100.00;100241.28;5095314;28;20460;-49
2023/12/21 03:56:33;;;;;;;0.30;0.30;;;;;;;7.58;100.00;100229.34;5094608;28;20028;-48
2023/12/21 03:58:59;;;;;;;0.30;0.30;;;;;;;7.58;100.00;100230.19;5095170;28;20107;-46
2023/12/21 04:01:25;;;;;;;0.30;0.30;;;;;;;7.58;100.00;100217.38;5095329;28;20032;-47
2023/12/21 04:03:51;;;;;;;0.40;0.40;;;;;;;7.58;100.00;100209.69;5095010;28;20020;-49
2023/12/21 04:06:16;;;;;;;0.30;0.30;;;;;;;7.58;100.00;100212.25;5094980;28;20028;-48
2023/12/21 04:08:41;;;;;;;0.30;0.30;;;;;;;7.58;100.00;100212.25;5095352;28;20085;-45
2023/12/21 04:11:07;;;;;;;0.30;0.30;;;;;;;7.61;100.00;100213.19;5094643;28;20039;-46
2023/12/21 04:13:32;;;;;;;0.30;0.30;;;;;;;7.61;100.00;100206.34;5094538;28;20480;-47
2023/12/21 04:15:57;;;;;;;0.30;0.30;;;;;;;7.64;100.00;100195.31;5095380;28;20024;-49
2023/12/21 04:18:23;;;;;;;0.30;0.30;;;;;;;7.66;100.00;100186.00;5094429;28;20525;-46
2023/12/21 04:20:48;;;;;;;0.30;0.30;;;;;;;7.67;100.00;100180.91;5095142;28;20020;-47
2023/12/21 04:23:13;;;;;;;0.30;0.30;;;;;;;7.68;100.00;100174.06;5094833;28;20073;-49
2023/12/21 04:25:38;;;;;;;0.30;0.30;;;;;;;7.68;100.00;100158.66;5094377;28;20031;-48
2023/12/21 04:28:04;;;;;;;0.20;0.20;;;;;;;7.69;100.00;100163.84;5094565;28;20372;-47
2023/12/21 04:30:29;;;;;;;0.30;0.30;;;;;;;7.70;100.00;100162.16;5094552;28;20039;-49
2023/12/21 04:32:55;;;;;;;0.30;0.30;;;;;;;7.72;100.00;100168.19;5094380;28;20107;-48
2023/12/21 04:35:20;;;;;;;0.20;0.20;;;;;;;7.75;100.00;100160.59;5094371;28;20346;-47
2023/12/21 04:37:45;;;;;;;0.30;0.30;;;;;;;7.79;100.00;100123.97;5094886;28;20161;-49
2023/12/21 04:40:11;;;;;;;0.30;0.30;;;;;;;7.81;100.00;100108.59;5093681;28;20055;-46
2023/12/21 04:42:36;;;;;;;0.30;0.30;;;;;;;7.85;100.00;100113.00;5094670;28;20460;-49
2023/12/21 04:45:02;;;;;;;0.30;0.30;;;;;;;7.86;100.00;100120.75;5094308;28;20024;-47
2023/12/21 04:47:27;;;;;;;0.20;0.20;;;;;;;7.89;100.00;100130.25;5094013;28;20090;-48
2023/12/21 04:49:52;;;;;;;0.30;0.30;;;;;;;7.93;100.00;100116.66;5094821;28;20020;-50
2023/12/21 04:52:17;;;;;;;0.30;0.30;;;;;;;7.95;100.00;100102.16;5093861;28;20031;-48
2023/12/21 04:54:43;;;;;;;0.30;0.30;;;;;;;7.97;100.00;100085.13;5094353;28;20440;-48
2023/12/21 04:57:08;;;;;;;0.25;0.25;;;;;;;7.98;100.00;100078.28;5094474;28;20086;-47
2023/12/21 04:59:33;;;;;;;0.30;0.30;;;;;;;8.04;100.00;100075.91;5093028;28;20027;-47
2023/12/21 05:01:59;;;;;;;0.20;0.20;;;;;;;8.07;100.00;100079.41;5094147;28;20025;-47
2023/12/21 05:04:24;;;;;;;0.30;0.30;;;;;;;8.12;100.00;100065.84;5094231;28;20387;-48
2023/12/21 05:06:50;;;;;;;0.30;0.30;;;;;;;8.18;100.00;100043.75;5093886;28;20020;-47
2023/12/21 05:09:15;;;;;;;0.28;0.28;;;;;;;8.19;100.00;100055.78;5093749;28;20019;-48
2023/12/21 05:11:40;;;;;;;0.30;0.30;;;;;;;8.21;100.00;100060.94;5094045;28;20055;-49
2023/12/21 05:14:05;;;;;;;0.30;0.30;;;;;;;8.22;100.00;100063.56;5093797;28;20020;-49
2023/12/21 05:16:31;;;;;;;0.30;0.30;;;;;;;8.27;100.00;100055.97;5093790;28;20472;-48
2023/12/21 05:18:56;;;;;;;0.28;0.28;;;;;;;8.28;100.00;100056.88;5094065;28;20383;-47
2023/12/21 05:21:21;;;;;;;0.30;0.30;;;;;;;8.30;100.00;100060.31;5093265;28;20028;-49
2023/12/21 05:23:47;;;;;;;0.20;0.20;;;;;;;8.31;100.00;100062.94;5093845;28;20020;-45
2023/12/21 05:26:13;;;;;;;0.38;0.38;;;;;;;8.34;100.00;100062.13;5093713;28;20030;-48
2023/12/21 05:28:44;;;;;;;0.30;0.30;;;;;;;8.36;100.00;100050.22;5093494;28;20102;-49
2023/12/21 05:31:10;;;;;;;0.20;0.20;;;;;;;8.40;100.00;100028.91;5093501;28;20114;-45
2023/12/21 05:33:35;;;;;;;0.20;0.20;;;;;;;8.39;100.00;100033.19;5093841;28;20035;-48
2023/12/21 05:36:02;;;;;;;0.22;0.22;;;;;;;8.40;100.00;100031.47;5093351;28;20020;-49
2023/12/21 05:38:28;;;;;;;0.30;0.30;;;;;;;8.38;100.00;100031.44;5092858;28;20028;-48
2023/12/21 05:40:54;;;;;;;0.20;0.20;;;;;;;8.37;100.00;100028.84;5093612;28;20035;-49
2023/12/21 05:43:19;;;;;;;0.20;0.20;;;;;;;8.34;100.00;100029.66;5092751;28;20141;-49
2023/12/21 05:45:44;;;;;;;0.30;0.30;;;;;;;8.37;100.00;100027.16;5093493;28;20470;-49
2023/12/21 05:48:11;;;;;;;0.22;0.22;;;;;;;8.36;100.00;100021.97;5093407;28;20036;-48
2023/12/21 05:50:36;;;;;;;0.30;0.30;;;;;;;8.37;100.00;100031.41;5093152;28;20031;-46
2023/12/21 05:53:01;;;;;;;0.20;0.20;;;;;;;8.38;100.00;100028.03;5093470;28;20036;-45
2023/12/21 05:55:27;;;;;;;0.20;0.20;;;;;;;8.42;100.00;100029.84;5093122;28;20459;-47
2023/12/21 05:57:52;;;;;;;0.30;0.30;;;;;;;8.47;100.00;100046.25;5093617;28;20112;-50
2023/12/21 06:00:18;;;;;;;0.30;0.30;;;;;;;8.46;100.00;100041.94;5093293;28;20023;-48
2023/12/21 06:02:43;;;;;;;0.30;0.30;;;;;;;8.44;100.00;100041.00;5092898;28;20024;-48
2023/12/21 06:05:08;;;;;;;0.28;0.28;;;;;;;8.39;100.00;100043.47;5092921;28;20368;-47
2023/12/21 06:07:33;;;;;;;0.30;0.30;;;;;;;8.37;100.00;100034.84;5092966;28;20028;-46
2023/12/21 06:09:59;;;;;;;0.30;0.30;;;;;;;8.33;100.00;100034.75;5092626;28;20516;-47
2023/12/21 06:12:24;;;;;;;0.30;0.30;;;;;;;8.30;100.00;100011.53;5092175;28;20032;-49
2023/12/21 06:14:49;;;;;;;0.30;0.30;;;;;;;8.27;100.00;100016.63;5093345;28;20020;-47
2023/12/21 06:17:15;;;;;;;0.30;0.30;;;;;;;8.24;100.00;100012.28;5092367;28;20548;-47
2023/12/21 06:19:42;;;;;;;0.25;0.25;;;;;;;8.18;100.00;100015.53;5092897;28;20065;-49
2023/12/21 06:22:08;;;;;;;0.30;0.30;;;;;;;8.15;100.00;99982.09;5093034;28;20062;-49
2023/12/21 06:24:33;;;;;;;0.30;0.30;;;;;;;8.12;100.00;99974.34;5092007;28;20055;-48
2023/12/21 06:26:58;;;;;;;0.40;0.40;;;;;;;8.12;100.00;99958.03;5092604;28;20031;-47
2023/12/21 06:29:24;;;;;;;0.30;0.30;;;;;;;8.10;100.00;99975.13;5092700;28;20150;-48
2023/12/21 06:31:49;;;;;;;0.30;0.30;;;;;;;8.09;100.00;99984.50;5092369;28;20027;-45
2023/12/21 06:34:14;;;;;;;0.20;0.20;;;;;;;8.08;100.00;99988.78;5092331;28;20065;-48
2023/12/21 06:36:40;;;;;;;0.25;0.25;;;;;;;8.07;100.00;99975.91;5092820;28;20099;-49
2023/12/21 06:39:05;;;;;;;0.30;0.30;;;;;;;8.07;100.00;99968.22;5092082;28;20028;-49
2023/12/21 06:41:30;;;;;;;0.30;0.30;;;;;;;8.08;100.00;99972.50;5092066;28;20486;-48
2023/12/21 06:43:56;;;;;;;0.30;0.30;;;;;;;8.07;100.00;99971.63;5092929;28;20032;-48
2023/12/21 06:46:21;;;;;;;0.30;0.30;;;;;;;8.09;100.00;99979.38;5091430;28;20449;-48
2023/12/21 06:48:46;;;;;;;0.30;0.30;;;;;;;8.07;100.00;99978.47;5092868;28;20038;-49
2023/12/21 06:51:13;;;;;;;0.30;0.30;;;;;;;8.07;100.00;99961.38;5092337;28;20032;-47
2023/12/21 06:53:39;;;;;;;0.30;0.30;;;;;;;8.06;100.00;99951.94;5091945;28;20035;-48
2023/12/21 06:56:05;;;;;;;0.30;0.30;;;;;;;8.07;100.00;99952.81;5092622;28;20032;-49
2023/12/21 06:58:30;;;;;;;0.30;0.30;;;;;;;8.07;100.00;99934.84;5092462;28;20452;-47
2023/12/21 07:00:55;;;;;;;0.20;0.20;;;;;;;8.05;100.00;99926.22;5091845;28;20046;-48
2023/12/21 07:03:22;;;;;;;0.30;0.30;;;;;;;8.05;100.00;99932.22;5092263;28;20024;-47
2023/12/21 07:05:49;;;;;;;0.30;0.30;;;;;;;8.05;100.00;99913.41;5091868;28;20053;-49
2023/12/21 07:08:15;;;;;;;0.30;0.30;;;;;;;8.06;100.00;99908.31;5091851;28;20085;-47
2023/12/21 07:10:40;;;;;;;0.30;0.30;;;;;;;8.06;100.00;99895.47;5092044;28;20440;-47
2023/12/21 07:13:05;;;;;;;0.20;0.20;;;;;;;8.08;100.00;99890.38;5092064;28;20043;-49
2023/12/21 07:15:30;;;;;;;0.30;0.30;;;;;;;8.12;100.00;99902.47;5092177;28;20486;-45
2023/12/21 07:17:56;;;;;;;0.30;0.30;;;;;;;8.14;100.00;99892.22;5092578;28;20032;-48
2023/12/21 07:20:24;;;;;;;0.30;0.30;;;;;;;8.16;100.00;99898.25;5091665;28;20431;-46
2023/12/21 07:22:50;;;;;;;0.30;0.30;;;;;;;8.17;100.00;99888.03;5092130;28;20052;-49
2023/12/21 07:25:16;;;;;;;0.20;0.20;;;;;;;8.17;100.00;99888.03;5095841;28;20206;-46
2023/12/21 07:27:41;;;;;;;0.38;0.38;;;;;;;8.18;100.00;99869.22;5095816;28;20027;-48
2023/12/21 07:30:07;;;;;;;0.30;0.30;;;;;;;8.19;100.00;99862.41;5095548;28;20115;-46
2023/12/21 07:32:32;;;;;;;0.20;0.20;;;;;;;8.19;100.00;99860.69;5095846;28;20020;-49
2023/12/21 07:34:58;;;;;;;0.30;0.30;;;;;;;8.22;100.00;99858.22;5095550;28;20031;-45
2023/12/21 07:37:23;;;;;;;0.28;0.28;;;;;;;8.28;100.00;99846.34;5095456;28;20078;-49
2023/12/21 07:39:48;;;;;;;0.20;0.20;;;;;;;8.32;100.00;99827.63;5096041;28;20049;-47
2023/12/21 07:42:13;;;;;;;0.30;0.30;;;;;;;8.35;100.00;99830.25;5095231;28;20029;-45
2023/12/21 07:44:39;;;;;;;0.30;0.30;;;;;;;8.36;100.00;99837.13;5095732;28;20024;-47
2023/12/21 07:47:04;;;;;;;0.20;0.20;;;;;;;8.40;100.00;99834.66;5095739;28;20044;-47
2023/12/21 07:49:29;;;;;;;0.30;0.30;;;;;;;8.43;100.00;99845.81;5094874;28;20016;-47
2023/12/21 07:51:55;;;;;;;0.20;0.20;;;;;;;8.44;100.00;99834.72;5095649;28;20472;-47
2023/12/21 07:54:20;;;;;;;0.30;0.30;;;;;;;8.44;100.00;99827.88;5095295;28;20429;-48
2023/12/21 07:56:45;;;;;;;0.30;0.30;;;;;;;8.45;100.00;99814.22;5094800;28;20030;-48
2023/12/21 07:59:11;;;;;;;0.22;0.22;;;;;;;8.44;100.00;99817.59;5095317;28;20039;-48
2023/12/21 08:01:36;;;;;;;0.22;0.22;;;;;;;8.41;100.00;99822.69;5095633;28;20034;-49
2023/12/21 08:04:02;;;;;;;0.20;0.20;;;;;;;8.38;100.00;99825.19;5094846;28;20422;-47
2023/12/21 08:06:27;;;;;;;0.30;0.30;;;;;;;8.36;100.00;99811.44;5095224;28;20043;-46
2023/12/21 08:08:53;;;;;;;0.25;0.25;;;;;;;8.36;100.00;99811.44;5095002;28;20032;-46
2023/12/21 08:11:20;;;;;;;0.30;0.30;;;;;;;8.34;100.00;99825.94;5095138;28;20493;-49
2023/12/21 08:13:45;;;;;;;0.25;0.25;;;;;;;8.34;100.00;99810.53;5095472;28;20107;-44
2023/12/21 08:16:10;;;;;;;0.20;0.20;;;;;;;8.32;100.00;99818.22;5094433;28;20115;-45
2023/12/21 08:18:36;;;;;;;0.30;0.30;;;;;;;8.30;100.00;99813.88;5094921;28;20032;-47
2023/12/21 08:21:01;;;;;;;0.30;0.30;;;;;;;8.30;100.00;99816.44;5095308;28;20031;-46
2023/12/21 08:23:26;;;;;;;0.30;0.30;;;;;;;8.30;100.00;99801.91;5094293;28;20045;-45
2023/12/21 08:25:52;;;;;;;0.20;0.20;;;;;;;8.31;100.00;99797.63;5095081;28;20028;-48
2023/12/21 08:28:17;;;;;;;0.25;0.25;;;;;;;8.29;100.00;99786.47;5094831;28;20031;-45
2023/12/21 08:30:43;;;;;;;0.30;0.30;;;;;;;8.28;100.00;99772.78;5094466;28;20036;-48
2023/12/21 08:33:09;;;;;;;0.30;0.30;;;;;;;8.29;100.00;99778.75;5094755;28;20032;-47
2023/12/21 08:35:34;;;;;;;0.20;0.20;;;;;;;8.30;100.00;99789.09;5094649;28;20039;-46
2023/12/21 08:38:00;;;;;;;0.30;0.30;;;;;;;8.32;100.00;99807.09;5094336;28;20031;-45
2023/12/21 08:40:26;;;;;;;0.20;0.20;;;;;;;8.33;100.00;99799.41;5094288;28;20112;-47
2023/12/21 08:42:51;;;;;;;0.28;0.28;;;;;;;8.34;100.00;99784.84;5094844;28;20103;-47
2023/12/21 08:45:16;;;;;;;0.22;0.22;;;;;;;8.34;100.00;99779.72;5093817;28;20119;-46
2023/12/21 08:47:42;;;;;;;0.22;0.22;;;;;;;8.35;100.00;99782.34;5094428;28;20115;-48
2023/12/21 08:50:11;;;;;;;0.25;0.25;;;;;;;8.36;100.00;99772.94;5094851;28;20118;-50
2023/12/21 08:52:39;;;;;;;0.30;0.30;;;;;;;8.37;100.00;99772.09;5093540;28;20020;-46
2023/12/21 08:55:05;;;;;;;0.30;0.30;;;;;;;8.38;100.00;99761.00;5094754;28;20085;-46
2023/12/21 08:57:32;;;;;;;0.30;0.30;;;;;;;8.39;100.00;99768.75;5094215;28;20028;-47
2023/12/21 08:59:58;;;;;;;0.30;0.30;;;;;;;8.42;100.00;99762.81;5111169;28;20122;-44
2023/12/21 09:02:25;;;;;;;0.25;0.25;;;;;;;8.46;100.00;99736.38;5092843;28;20327;-48
2023/12/21 09:04:50;;;;;;;0.30;0.30;;;;;;;8.49;100.00;99748.41;5093716;28;20555;-47
2023/12/21 09:07:15;;;;;;;0.28;0.28;;;;;;;8.52;100.00;99739.06;5098139;28;20107;-46
2023/12/21 09:09:41;;;;;;;0.20;0.20;;;;;;;8.54;100.00;99739.94;5093773;28;20108;-49
2023/12/21 09:12:06;;;;;;;0.30;0.30;;;;;;;8.57;100.00;99732.31;5094000;28;20040;-44
2023/12/21 09:14:31;;;;;;;0.30;0.30;;;;;;;8.65;100.00;99744.44;5093028;28;20024;-48
2023/12/21 09:16:58;;;;;;;0.30;0.30;;;;;;;8.70;100.00;99737.69;5094144;28;20036;-45
2023/12/21 09:19:24;;;;;;;0.30;0.30;;;;;;;8.72;100.00;99743.72;5093058;28;20012;-47
2023/12/21 09:21:49;;;;;;;0.20;0.20;;;;;;;8.73;100.00;99748.03;5093833;28;20027;-44
2023/12/21 09:24:14;;;;;;;0.30;0.30;;;;;;;8.75;100.00;99730.06;5093684;28;20020;-49
2023/12/21 09:26:39;;;;;;;0.20;0.20;;;;;;;8.75;100.00;99700.09;5093473;28;20106;-49
2023/12/21 09:29:05;;;;;;;0.25;0.25;;;;;;;8.77;100.00;99698.44;5093804;28;20027;-43
2023/12/21 09:31:31;;;;;;;0.25;0.25;;;;;;;8.77;100.00;99687.31;5093802;28;20135;-46
2023/12/21 09:33:57;;;;;;;0.30;0.30;;;;;;;8.76;100.00;99722.41;5093270;28;20383;-47
2023/12/21 09:36:23;;;;;;;0.30;0.30;;;;;;;8.79;100.00;99716.44;5092940;28;20020;-49
2023/12/21 09:38:48;;;;;;;0.20;0.20;;;;;;;8.80;100.00;99698.50;5093895;28;20459;-49
2023/12/21 09:41:14;;;;;;;0.30;0.30;;;;;;;8.84;100.00;99705.41;5092874;28;20031;-49
2023/12/21 09:43:41;;;;;;;0.30;0.30;;;;;;;8.89;100.00;99721.78;5093613;28;20031;-46
2023/12/21 09:46:08;;;;;;;0.20;0.20;;;;;;;8.93;100.00;99697.00;5093030;28;20040;-47
2023/12/21 09:48:36;;;;;;;0.20;0.20;;;;;;;9.02;100.00;99704.00;5092823;28;20104;-49
2023/12/21 09:51:04;;;;;;;0.20;0.20;;;;;;;9.07;100.00;99689.53;5093057;28;20430;-49
2023/12/21 09:53:31;;;;;;;0.20;0.20;;;;;;;9.19;100.00;99694.00;5093344;28;20039;-46
2023/12/21 09:55:57;;;;;;;0.20;0.20;;;;;;;9.26;100.00;99702.69;5092758;28;20063;-46
2023/12/21 09:58:22;;;;;;;0.20;0.20;;;;;;;9.29;100.00;99701.03;5093035;28;20115;-48
2023/12/21 10:00:48;;;;;;;0.30;0.30;;;;;;;9.30;100.00;99677.06;5093389;28;20111;-48
2023/12/21 10:03:13;;;;;;;0.30;0.30;;;;;;;9.33;100.00;99689.09;5092228;28;20387;-42
2023/12/21 10:05:40;;;;;;;0.20;0.20;;;;;;;9.36;100.00;99694.28;5093346;28;20111;-46
2023/12/21 10:08:05;;;;;;;0.20;0.20;;;;;;;9.38;100.00;99684.91;5093229;28;20031;-45
2023/12/21 10:10:31;;;;;;;0.13;0.13;;;;;;;9.41;100.00;99679.78;5092172;28;20032;-46
2023/12/21 10:12:56;;;;;;;0.30;0.30;;;;;;;9.42;100.00;99671.25;5093188;28;20094;-46
2023/12/21 10:15:21;;;;;;;0.30;0.30;;;;;;;9.47;100.00;99682.47;5092953;28;20032;-46
2023/12/21 10:17:47;;;;;;;0.20;0.20;;;;;;;9.52;100.00;99672.25;5092415;28;20031;-46
2023/12/21 10:20:12;;;;;;;0.20;0.20;;;;;;;9.56;100.00;99676.59;5092710;28;20038;-44
2023/12/21 10:22:43;;;;;;;0.22;0.22;;;;;;;9.59;100.00;99681.78;5092609;28;20020;-43
2023/12/21 10:25:10;;;;;;;0.20;0.20;;;;;;;9.62;100.00;99693.81;5092513;28;20035;-46
2023/12/21 10:27:36;;;;;;;0.20;0.20;;;;;;;9.63;100.00;99690.41;5093236;28;20024;-43
2023/12/21 10:30:03;;;;;;;0.22;0.22;;;;;;;9.65;100.00;99688.75;5092376;28;20031;-46
2023/12/21 10:32:28;;;;;;;0.20;0.20;;;;;;;9.69;100.00;99683.66;5092428;28;20042;-44
2023/12/21 10:34:54;;;;;;;0.28;0.28;;;;;;;9.69;100.00;99681.06;5092811;28;20099;-43
2023/12/21 10:37:22;;;;;;;0.20;0.20;;;;;;;9.72;100.00;99682.81;5091902;28;20023;-48
2023/12/21 10:39:47;;;;;;;0.30;0.30;;;;;;;9.75;100.00;99679.44;5092459;28;20399;-45
2023/12/21 10:42:15;;;;;;;0.20;0.20;;;;;;;9.82;100.00;99664.09;5092492;28;20150;-44
2023/12/21 10:44:44;;;;;;;0.20;0.20;;;;;;;9.83;100.00;99676.13;5091754;28;20515;-45
2023/12/21 10:47:11;;;;;;;0.20;0.20;;;;;;;9.84;100.00;99666.72;5091996;28;20068;-43
2023/12/21 10:49:39;;;;;;;0.30;0.30;;;;;;;9.82;100.00;99651.22;5092622;28;20479;-47
2023/12/21 10:52:05;;;;;;;0.20;0.20;;;;;;;9.87;100.00;99665.03;5091808;28;20028;-45
2023/12/21 10:54:32;;;;;;;0.20;0.20;;;;;;;9.85;100.00;99648.72;5092473;28;20028;-44
2023/12/21 10:56:59;;;;;;;0.20;0.20;;;;;;;9.81;100.00;99680.41;5092819;28;20077;-47
2023/12/21 10:59:26;;;;;;;0.30;0.30;;;;;;;9.83;100.00;99683.00;5094284;28;20071;-43
2023/12/21 11:01:52;;;;;;;0.20;0.20;;;;;;;9.81;100.00;99672.69;5096666;28;20149;-43
2023/12/21 11:04:20;;;;;;;0.22;0.22;;;;;;;9.77;100.00;99654.59;5103269;28;20115;-47
2023/12/21 11:06:46;;;;;;;0.20;0.20;;;;;;;9.70;100.00;99661.38;5095657;28;20024;-47
2023/12/21 11:09:18;;;;;;;0.20;0.20;;;;;;;9.64;100.00;99658.69;5097682;28;20024;-44
2023/12/21 11:11:45;;;;;;;0.30;0.30;;;;;;;9.58;100.00;99658.59;5102536;28;20114;-45
2023/12/21 11:14:10;;;;;;;0.20;0.20;;;;;;;9.52;100.00;99670.53;5095613;28;20024;-43
2023/12/21 11:16:41;;;;;;;0.20;0.20;;;;;;;9.49;100.00;99665.38;5095529;28;20073;-46
2023/12/21 11:19:10;;;;;;;0.30;0.30;;;;;;;9.50;100.00;99655.94;5096074;28;20153;-50
2023/12/21 11:21:36;;;;;;;0.30;0.30;;;;;;;9.54;100.00;99653.44;5096151;28;20427;-47